createdAt,value
2018-11-26T00:01:22.143Z,5.30
2018-11-26T00:03:50.161Z,5.30
2018-11-26T00:06:18.185Z,5.30
2018-11-26T00:08:46.225Z,5.30
2018-11-26T00:11:29.417Z,5.30
2018-11-26T00:13:57.529Z,5.30
2018-11-26T00:16:25.574Z,5.40
2018-11-26T00:18:53.598Z,5.40
2018-11-26T00:21:21.637Z,5.30
2018-11-26T00:23:49.677Z,5.30
2018-11-26T00:26:17.707Z,5.20
2018-11-26T00:28:46.398Z,5.20
2018-11-26T00:31:15.067Z,5.10
2018-11-26T00:33:43.142Z,5.20
2018-11-26T00:36:11.167Z,5.20
2018-11-26T00:38:39.229Z,5.30
2018-11-26T00:41:07.281Z,5.30
2018-11-26T00:43:35.311Z,5.20
2018-11-26T00:46:03.320Z,5.20
2018-11-26T00:48:31.360Z,5.20
2018-11-26T00:50:59.388Z,5.10
2018-11-26T00:53:27.394Z,5.10
2018-11-26T00:55:55.427Z,5.10
2018-11-26T00:58:23.451Z,5.10
2018-11-26T01:00:51.937Z,5.00
2018-11-26T01:03:19.979Z,5.00
2018-11-26T01:05:48.011Z,5.00
2018-11-26T01:08:16.031Z,5.00
2018-11-26T01:10:44.047Z,5.10
2018-11-26T01:13:12.083Z,5.10
2018-11-26T01:15:40.110Z,5.10
2018-11-26T01:18:08.162Z,5.10
2018-11-26T01:20:36.289Z,5.10
2018-11-26T01:23:04.395Z,5.10
2018-11-26T01:25:32.469Z,5.00
2018-11-26T01:28:00.506Z,5.00
2018-11-26T01:30:28.524Z,4.90
2018-11-26T01:32:56.546Z,5.00
2018-11-26T01:35:24.562Z,4.90
2018-11-26T01:37:52.590Z,4.90
2018-11-26T01:40:22.524Z,4.80
2018-11-26T01:42:50.553Z,4.80
2018-11-26T01:45:18.585Z,4.80
2018-11-26T01:47:46.606Z,4.70
2018-11-26T01:50:14.619Z,4.70
2018-11-26T01:52:42.669Z,4.60
2018-11-26T01:55:10.927Z,4.60
2018-11-26T01:57:39.033Z,4.60
2018-11-26T02:00:15.934Z,4.50
2018-11-26T02:02:43.963Z,4.60
2018-11-26T02:05:11.996Z,4.50
2018-11-26T02:07:40.039Z,4.50
2018-11-26T02:10:09.746Z,4.50
2018-11-26T02:12:37.781Z,4.40
2018-11-26T02:15:12.232Z,4.40
2018-11-26T02:17:40.472Z,4.40
2018-11-26T02:20:09.518Z,4.40
2018-11-26T02:22:37.691Z,4.40
2018-11-26T02:25:06.866Z,4.40
2018-11-26T02:27:34.921Z,4.40
2018-11-26T02:30:02.953Z,4.30
2018-11-26T02:32:30.995Z,4.30
2018-11-26T02:34:59.020Z,4.30
2018-11-26T02:37:27.079Z,4.30
2018-11-26T02:39:55.107Z,4.30
2018-11-26T02:42:23.146Z,4.40
2018-11-26T02:44:51.183Z,4.30
2018-11-26T02:47:19.217Z,4.30
2018-11-26T02:49:47.236Z,4.30
2018-11-26T02:52:15.273Z,4.30
2018-11-26T02:54:43.284Z,4.30
2018-11-26T02:57:11.318Z,4.20
2018-11-26T02:59:39.377Z,4.20
2018-11-26T03:02:07.405Z,4.20
2018-11-26T03:04:35.453Z,4.20
2018-11-26T03:07:03.489Z,4.20
2018-11-26T03:09:31.517Z,4.30
2018-11-26T03:11:59.537Z,4.30
2018-11-26T03:14:27.569Z,4.20
2018-11-26T03:16:55.613Z,4.20
2018-11-26T03:19:23.651Z,4.20
2018-11-26T03:21:51.676Z,4.20
2018-11-26T03:24:19.717Z,4.20
2018-11-26T03:26:47.752Z,4.20
2018-11-26T03:29:15.787Z,4.20
2018-11-26T03:31:43.825Z,4.20
2018-11-26T03:34:11.866Z,4.20
2018-11-26T03:36:39.907Z,4.20
2018-11-26T03:39:07.995Z,4.10
2018-11-26T03:41:36.037Z,4.10
2018-11-26T03:44:04.085Z,4.10
2018-11-26T03:46:32.111Z,4.10
2018-11-26T03:49:00.130Z,4.00
2018-11-26T03:51:28.176Z,4.00
2018-11-26T03:53:56.191Z,4.10
2018-11-26T03:56:24.231Z,4.10
2018-11-26T03:58:52.254Z,4.10
2018-11-26T04:01:20.268Z,4.10
2018-11-26T04:03:48.312Z,4.10
2018-11-26T04:06:16.337Z,4.10
2018-11-26T04:08:44.369Z,4.10
2018-11-26T04:11:12.389Z,4.10
2018-11-26T04:13:40.419Z,4.10
2018-11-26T04:16:08.441Z,4.20
2018-11-26T04:18:36.479Z,4.20
2018-11-26T04:21:05.073Z,4.20
2018-11-26T04:23:33.106Z,4.30
2018-11-26T04:26:01.161Z,4.20
2018-11-26T04:28:29.185Z,4.30
2018-11-26T04:30:57.227Z,4.40
2018-11-26T04:33:25.257Z,4.50
2018-11-26T04:35:53.297Z,4.50
2018-11-26T04:38:21.345Z,4.50
2018-11-26T04:40:49.393Z,4.50
2018-11-26T04:43:17.437Z,4.60
2018-11-26T04:45:45.475Z,4.60
2018-11-26T04:48:13.529Z,4.60
2018-11-26T04:50:41.570Z,4.80
2018-11-26T04:53:09.617Z,4.90
2018-11-26T04:55:37.639Z,4.90
2018-11-26T04:58:05.662Z,5.00
2018-11-26T05:00:33.686Z,5.00
2018-11-26T05:03:01.733Z,5.20
2018-11-26T05:05:29.762Z,5.30
2018-11-26T05:07:57.768Z,5.30
2018-11-26T05:10:25.815Z,5.30
2018-11-26T05:12:53.846Z,5.30
2018-11-26T05:15:21.881Z,5.30
2018-11-26T05:17:49.931Z,5.40
2018-11-26T05:20:18.817Z,5.40
2018-11-26T05:22:46.869Z,5.50
2018-11-26T05:25:14.909Z,5.60
2018-11-26T05:27:42.946Z,5.70
2018-11-26T05:30:12.054Z,5.70
2018-11-26T05:32:40.126Z,5.80
2018-11-26T05:35:09.554Z,5.70
2018-11-26T05:37:37.601Z,5.70
2018-11-26T05:40:08.033Z,5.70
2018-11-26T05:42:36.087Z,5.70
2018-11-26T05:45:04.998Z,5.60
2018-11-26T05:47:33.030Z,5.60
2018-11-26T05:50:01.094Z,5.60
2018-11-26T05:52:29.116Z,5.50
2018-11-26T05:54:57.160Z,5.50
2018-11-26T05:57:25.263Z,5.40
2018-11-26T05:59:53.325Z,5.40
2018-11-26T06:02:21.357Z,5.40
2018-11-26T06:04:49.416Z,5.50
2018-11-26T06:07:17.449Z,5.50
2018-11-26T06:09:45.492Z,5.50
2018-11-26T06:12:13.525Z,5.40
2018-11-26T06:14:41.597Z,5.40
2018-11-26T06:17:09.632Z,5.40
2018-11-26T06:19:37.676Z,5.40
2018-11-26T06:22:05.712Z,5.40
2018-11-26T06:24:33.738Z,5.30
2018-11-26T06:27:01.762Z,5.20
2018-11-26T06:29:29.861Z,5.10
2018-11-26T06:31:57.905Z,5.00
2018-11-26T06:34:25.959Z,5.00
2018-11-26T06:36:53.993Z,4.80
2018-11-26T06:39:22.034Z,4.80
2018-11-26T06:41:50.101Z,4.80
2018-11-26T06:44:18.153Z,4.70
2018-11-26T06:46:46.226Z,4.70
2018-11-26T06:49:14.234Z,4.60
2018-11-26T06:51:49.080Z,4.50
2018-11-26T06:54:17.132Z,4.50
2018-11-26T06:56:45.837Z,4.40
2018-11-26T06:59:13.865Z,4.40
2018-11-26T07:01:41.915Z,4.30
2018-11-26T07:04:09.933Z,4.30
2018-11-26T07:06:41.578Z,4.20
2018-11-26T07:09:09.605Z,4.20
2018-11-26T07:11:37.633Z,4.20
2018-11-26T07:14:05.765Z,4.10
2018-11-26T07:16:33.816Z,4.10
2018-11-26T07:19:01.837Z,4.10
2018-11-26T07:21:29.886Z,4.00
2018-11-26T07:23:57.933Z,4.00
2018-11-26T07:26:26.010Z,4.00
2018-11-26T07:28:54.062Z,4.00
2018-11-26T07:31:22.086Z,4.00
2018-11-26T07:33:50.163Z,4.00
2018-11-26T07:36:18.221Z,4.00
2018-11-26T07:38:46.267Z,4.00
2018-11-26T07:41:14.294Z,4.00
2018-11-26T07:43:42.325Z,4.10
2018-11-26T07:46:10.380Z,1.10
2018-11-26T07:48:38.416Z,4.00
2018-11-26T07:51:06.472Z,4.00
2018-11-26T07:53:34.526Z,4.00
2018-11-26T07:56:02.630Z,3.90
2018-11-26T07:58:30.653Z,3.90
2018-11-26T08:00:58.725Z,3.90
2018-11-26T08:03:26.761Z,3.90
2018-11-26T08:05:54.789Z,3.90
2018-11-26T08:08:22.839Z,3.90
2018-11-26T08:10:51.874Z,3.80
2018-11-26T08:13:19.934Z,3.80
2018-11-26T08:15:47.973Z,3.80
2018-11-26T08:18:16.022Z,3.90
2018-11-26T08:20:44.082Z,3.80
2018-11-26T08:23:12.131Z,3.80
2018-11-26T08:25:40.161Z,3.80
2018-11-26T08:28:08.217Z,3.80
2018-11-26T08:30:36.261Z,3.80
2018-11-26T08:33:04.373Z,3.90
2018-11-26T08:35:32.432Z,3.80
2018-11-26T08:38:05.946Z,3.80
2018-11-26T08:40:39.414Z,3.90
2018-11-26T08:43:11.718Z,3.90
2018-11-26T08:45:46.633Z,3.90
2018-11-26T08:48:15.608Z,4.00
2018-11-26T08:50:44.199Z,4.00
2018-11-26T08:53:12.249Z,4.00
2018-11-26T08:55:40.295Z,4.00
2018-11-26T08:58:08.345Z,4.10
2018-11-26T09:00:36.425Z,4.10
2018-11-26T09:03:09.822Z,4.20
2018-11-26T09:05:45.333Z,4.30
2018-11-26T09:08:14.225Z,4.40
2018-11-26T09:10:42.257Z,4.40
2018-11-26T09:13:10.277Z,4.40
2018-11-26T09:15:38.318Z,4.50
2018-11-26T09:18:06.349Z,4.50
2018-11-26T09:20:34.389Z,4.50
2018-11-26T09:23:02.415Z,4.60
2018-11-26T09:25:30.479Z,4.70
2018-11-26T09:27:58.504Z,4.70
2018-11-26T09:30:26.549Z,4.80
2018-11-26T09:32:54.658Z,4.80
2018-11-26T09:35:22.705Z,5.00
2018-11-26T09:37:50.749Z,5.10
2018-11-26T09:40:18.802Z,5.20
2018-11-26T09:42:46.902Z,5.20
2018-11-26T09:45:16.385Z,5.30
2018-11-26T09:47:44.601Z,5.40
2018-11-26T09:50:14.813Z,5.50
2018-11-26T09:52:42.856Z,5.50
2018-11-26T09:55:11.663Z,5.40
2018-11-26T09:57:39.756Z,5.50
2018-11-26T10:00:09.858Z,5.40
2018-11-26T10:02:38.125Z,5.50
2018-11-26T10:05:09.061Z,5.50
2018-11-26T10:07:37.088Z,5.60
2018-11-26T10:10:06.955Z,5.60
2018-11-26T10:12:34.982Z,5.60
2018-11-26T10:15:03.054Z,5.60
2018-11-26T10:17:31.082Z,5.60
2018-11-26T10:19:59.116Z,5.70
2018-11-26T10:22:27.142Z,5.70
2018-11-26T10:24:55.183Z,5.70
2018-11-26T10:27:23.206Z,5.70
2018-11-26T10:29:51.256Z,5.70
2018-11-26T10:32:19.294Z,5.70
2018-11-26T10:34:47.337Z,5.70
2018-11-26T10:37:15.330Z,5.70
2018-11-26T10:39:43.365Z,5.90
2018-11-26T10:42:11.378Z,5.90
2018-11-26T10:44:39.406Z,5.90
2018-11-26T10:47:07.423Z,5.90
2018-11-26T10:49:35.429Z,5.90
2018-11-26T10:52:03.437Z,5.90
2018-11-26T10:54:31.478Z,5.90
2018-11-26T10:56:59.532Z,6.00
2018-11-26T10:59:27.609Z,6.10
2018-11-26T11:02:01.684Z,6.00
2018-11-26T11:04:29.969Z,6.10
2018-11-26T11:06:57.997Z,6.00
2018-11-26T11:09:26.053Z,6.10
2018-11-26T11:11:54.071Z,6.10
2018-11-26T11:14:22.077Z,6.10
2018-11-26T11:16:50.089Z,6.10
2018-11-26T11:19:18.166Z,6.20
2018-11-26T11:21:46.180Z,6.30
2018-11-26T11:24:14.202Z,6.40
2018-11-26T11:26:42.245Z,6.50
2018-11-26T11:29:10.303Z,6.70
2018-11-26T11:31:38.339Z,6.80
2018-11-26T11:34:06.371Z,6.80
2018-11-26T11:36:34.408Z,6.80
2018-11-26T11:39:02.486Z,6.70
2018-11-26T11:41:34.303Z,6.80
2018-11-26T11:43:58.566Z,6.80
2018-11-26T11:46:26.606Z,6.80
2018-11-26T11:48:54.694Z,6.80
2018-11-26T11:51:22.725Z,6.80
2018-11-26T11:53:50.786Z,6.70
2018-11-26T11:56:18.870Z,6.70
2018-11-26T11:58:46.930Z,6.70
2018-11-26T12:01:14.967Z,6.70
2018-11-26T12:03:43.005Z,6.70
2018-11-26T12:06:11.397Z,6.70
2018-11-26T12:08:39.074Z,6.70
2018-11-26T12:11:07.122Z,6.70
2018-11-26T12:13:35.174Z,6.80
2018-11-26T12:16:03.206Z,6.70
2018-11-26T12:18:31.254Z,6.70
2018-11-26T12:20:59.299Z,6.60
2018-11-26T12:23:27.335Z,6.70
2018-11-26T12:25:55.365Z,6.70
2018-11-26T12:28:23.394Z,6.70
2018-11-26T12:30:51.547Z,6.70
2018-11-26T12:33:19.462Z,6.70
2018-11-26T12:35:47.478Z,6.70
2018-11-26T12:38:15.530Z,6.70
2018-11-26T12:40:43.668Z,6.70
2018-11-26T12:43:11.738Z,6.60
2018-11-26T12:45:39.797Z,6.60
2018-11-26T12:48:07.884Z,6.60
2018-11-26T12:50:35.859Z,6.60
2018-11-26T12:53:03.867Z,6.60
2018-11-26T12:55:32.078Z,6.70
2018-11-26T12:58:00.096Z,6.80
2018-11-26T13:00:28.974Z,6.80
2018-11-26T13:03:03.999Z,6.70
2018-11-26T13:05:32.046Z,6.70
2018-11-26T13:08:00.079Z,6.70
2018-11-26T13:10:28.108Z,6.70
2018-11-26T13:12:56.130Z,6.80
2018-11-26T13:15:25.627Z,6.80
2018-11-26T13:17:53.691Z,6.80
2018-11-26T13:20:23.526Z,6.80
2018-11-26T13:22:52.002Z,6.80
2018-11-26T13:25:22.347Z,6.80
2018-11-26T13:27:52.075Z,6.80
2018-11-26T13:30:30.142Z,6.80
2018-11-26T13:32:59.474Z,6.70
2018-11-26T13:35:27.487Z,6.60
2018-11-26T13:37:55.514Z,6.60
2018-11-26T13:40:23.565Z,6.60
2018-11-26T13:42:51.811Z,6.60
2018-11-26T13:45:23.403Z,9.60
2018-11-26T13:47:51.647Z,6.70
2018-11-26T13:50:23.963Z,6.70
2018-11-26T13:52:52.368Z,6.70
2018-11-26T13:55:20.419Z,6.70
2018-11-26T13:57:48.446Z,6.60
2018-11-26T14:00:16.922Z,6.70
2018-11-26T14:02:44.978Z,6.60
2018-11-26T14:05:14.860Z,6.60
2018-11-26T14:07:43.115Z,6.60
2018-11-26T14:10:14.351Z,6.60
2018-11-26T14:12:43.155Z,6.50
2018-11-26T14:15:12.563Z,6.40
2018-11-26T14:17:40.808Z,6.50
2018-11-26T14:20:11.148Z,6.50
2018-11-26T14:22:39.181Z,6.40
2018-11-26T14:25:13.614Z,6.30
2018-11-26T14:27:42.109Z,6.30
2018-11-26T14:30:13.471Z,6.40
2018-11-26T14:32:41.579Z,6.50
2018-11-26T14:35:09.644Z,6.50
2018-11-26T14:37:37.673Z,6.50
2018-11-26T14:40:08.407Z,6.30
2018-11-26T14:42:36.426Z,6.30
2018-11-26T14:45:04.855Z,6.30
2018-11-26T14:47:32.882Z,6.30
2018-11-26T14:50:00.893Z,6.30
2018-11-26T14:52:28.938Z,6.20
2018-11-26T14:54:56.962Z,6.10
2018-11-26T14:57:24.994Z,6.20
2018-11-26T14:59:53.005Z,6.10
2018-11-26T15:02:21.070Z,6.10
2018-11-26T15:04:49.083Z,6.10
2018-11-26T15:07:17.112Z,6.10
2018-11-26T15:09:45.127Z,6.10
2018-11-26T15:12:13.158Z,6.10
2018-11-26T15:14:41.209Z,6.10
2018-11-26T15:17:09.218Z,6.10
2018-11-26T15:19:37.286Z,6.00
2018-11-26T15:22:05.924Z,6.00
2018-11-26T15:24:33.951Z,6.00
2018-11-26T15:27:02.148Z,6.00
2018-11-26T15:29:30.178Z,6.10
2018-11-26T15:31:58.218Z,6.10
2018-11-26T15:34:26.247Z,6.20
2018-11-26T15:36:54.273Z,6.20
2018-11-26T15:39:22.303Z,6.20
2018-11-26T15:41:50.326Z,6.20
2018-11-26T15:44:18.351Z,6.20
2018-11-26T15:46:46.386Z,6.20
2018-11-26T15:49:14.402Z,6.20
2018-11-26T15:51:42.449Z,6.20
2018-11-26T15:54:10.474Z,6.20
2018-11-26T15:56:38.518Z,6.20
2018-11-26T15:59:06.539Z,6.10
2018-11-26T16:01:34.572Z,6.10
2018-11-26T16:04:02.591Z,6.00
2018-11-26T16:06:30.642Z,6.00
2018-11-26T16:08:58.650Z,6.00
2018-11-26T16:11:26.687Z,6.00
2018-11-26T16:13:54.707Z,5.90
2018-11-26T16:16:22.752Z,5.90
2018-11-26T16:18:50.795Z,5.90
2018-11-26T16:21:18.843Z,5.80
2018-11-26T16:23:46.869Z,5.80
2018-11-26T16:26:14.922Z,5.90
2018-11-26T16:28:42.958Z,5.80
2018-11-26T16:31:11.010Z,5.80
2018-11-26T16:33:39.058Z,5.80
2018-11-26T16:36:07.099Z,5.80
2018-11-26T16:38:35.128Z,5.90
2018-11-26T16:41:03.170Z,5.90
2018-11-26T16:43:31.236Z,5.90
2018-11-26T16:45:59.307Z,6.00
2018-11-26T16:48:27.374Z,5.90
2018-11-26T16:50:55.426Z,5.90
2018-11-26T16:53:23.514Z,5.90
2018-11-26T16:55:51.561Z,5.90
2018-11-26T16:58:19.588Z,5.80
2018-11-26T17:00:47.623Z,5.70
2018-11-26T17:03:15.659Z,5.70
2018-11-26T17:05:43.705Z,5.70
2018-11-26T17:08:13.074Z,5.70
2018-11-26T17:10:41.465Z,5.80
2018-11-26T17:13:10.547Z,5.80
2018-11-26T17:15:38.580Z,5.80
2018-11-26T17:18:07.186Z,5.80
2018-11-26T17:20:36.377Z,5.80
2018-11-26T17:23:04.496Z,5.70
2018-11-26T17:25:32.543Z,5.70
2018-11-26T17:28:00.577Z,5.70
2018-11-26T17:30:28.862Z,5.70
2018-11-26T17:33:02.451Z,5.80
2018-11-26T17:35:31.154Z,5.80
2018-11-26T17:37:59.167Z,5.80
2018-11-26T17:40:27.545Z,5.80
2018-11-26T17:42:55.786Z,5.70
2018-11-26T17:45:24.434Z,5.70
2018-11-26T17:47:53.782Z,5.70
2018-11-26T17:50:26.962Z,5.60
2018-11-26T17:52:55.024Z,5.60
2018-11-26T17:55:23.027Z,5.70
2018-11-26T17:57:51.175Z,5.70
2018-11-26T18:00:20.782Z,5.70
2018-11-26T18:02:48.839Z,5.80
2018-11-26T18:05:18.349Z,5.70
2018-11-26T18:07:48.054Z,5.70
2018-11-26T18:12:57.198Z,5.70
2018-11-26T18:15:25.214Z,5.70
2018-11-26T18:17:53.243Z,5.60
2018-11-26T18:20:21.824Z,5.70
2018-11-26T18:22:52.358Z,5.60
2018-11-26T18:25:21.040Z,5.60
2018-11-26T18:27:53.618Z,5.60
2018-11-26T18:30:23.874Z,5.60
2018-11-26T18:32:51.895Z,5.60
2018-11-26T18:35:19.921Z,5.60
2018-11-26T18:37:47.933Z,5.50
2018-11-26T18:40:16.735Z,5.60
2018-11-26T18:42:44.770Z,5.50
2018-11-26T18:45:14.012Z,5.50
2018-11-26T18:47:42.078Z,5.50
2018-11-26T18:50:11.883Z,5.50
2018-11-26T18:52:39.907Z,5.50
2018-11-26T18:55:08.948Z,5.40
2018-11-26T18:57:36.962Z,5.60
2018-11-26T19:00:11.941Z,5.60
2018-11-26T19:02:39.943Z,5.50
2018-11-26T19:05:08.702Z,5.50
2018-11-26T19:07:36.720Z,5.50
2018-11-26T19:10:11.144Z,5.40
2018-11-26T19:12:38.806Z,5.30
2018-11-26T19:15:14.595Z,5.40
2018-11-26T19:17:42.674Z,5.50
2018-11-26T19:20:11.866Z,5.40
2018-11-26T19:22:40.247Z,5.40
2018-11-26T19:25:09.742Z,5.50
2018-11-26T19:27:37.802Z,5.50
2018-11-26T19:30:08.927Z,5.60
2018-11-26T19:32:36.936Z,5.50
2018-11-26T19:35:06.231Z,5.40
2018-11-26T19:37:34.255Z,5.40
2018-11-26T19:40:02.310Z,5.40
2018-11-26T19:42:30.327Z,5.40
2018-11-26T19:44:58.375Z,5.40
2018-11-26T19:47:26.386Z,5.40
2018-11-26T19:49:54.410Z,5.40
2018-11-26T19:52:22.483Z,5.30
2018-11-26T19:54:50.806Z,5.30
2018-11-26T19:57:18.839Z,5.40
2018-11-26T19:59:46.852Z,5.40
2018-11-26T20:02:14.874Z,5.40
2018-11-26T20:04:47.786Z,5.40
2018-11-26T20:07:15.813Z,5.40
2018-11-26T20:09:43.828Z,5.50
2018-11-26T20:12:11.840Z,5.40
2018-11-26T20:14:39.859Z,5.40
2018-11-26T20:17:07.953Z,5.40
2018-11-26T20:19:35.980Z,5.30
2018-11-26T20:22:04.047Z,5.30
2018-11-26T20:24:32.067Z,5.30
2018-11-26T20:27:00.089Z,5.20
2018-11-26T20:29:28.105Z,5.20
2018-11-26T20:31:56.151Z,5.20
2018-11-26T20:34:24.163Z,5.20
2018-11-26T20:36:52.207Z,5.20
2018-11-26T20:39:20.227Z,5.20
2018-11-26T20:41:48.242Z,5.20
2018-11-26T20:44:16.267Z,5.10
2018-11-26T20:46:49.041Z,5.10
2018-11-26T20:49:21.141Z,5.10
2018-11-26T20:51:49.158Z,5.10
2018-11-26T20:54:17.179Z,5.10
2018-11-26T20:56:45.211Z,5.10
2018-11-26T20:59:13.232Z,5.10
2018-11-26T21:01:41.235Z,5.00
2018-11-26T21:04:09.250Z,5.00
2018-11-26T21:06:37.263Z,5.00
2018-11-26T21:09:07.367Z,5.00
2018-11-26T21:11:35.380Z,5.00
2018-11-26T21:14:03.390Z,5.00
2018-11-26T21:16:31.393Z,4.90
2018-11-26T21:18:59.414Z,4.90
2018-11-26T21:21:27.414Z,4.90
2018-11-26T21:23:55.459Z,4.80
2018-11-26T21:26:23.483Z,4.90
2018-11-26T21:28:51.507Z,4.80
2018-11-26T21:31:19.510Z,4.80
2018-11-26T21:33:47.541Z,4.70
2018-11-26T21:36:15.594Z,4.70
2018-11-26T21:38:43.623Z,4.80
2018-11-26T21:41:11.639Z,4.80
2018-11-26T21:43:39.654Z,4.90
2018-11-26T21:46:08.646Z,4.80
2018-11-26T21:48:36.820Z,4.70
2018-11-26T21:51:05.387Z,4.70
2018-11-26T21:53:33.442Z,4.70
2018-11-26T21:56:01.463Z,4.80
2018-11-26T21:58:29.499Z,4.70
2018-11-26T22:00:58.700Z,4.70
2018-11-26T22:03:30.503Z,4.70
2018-11-26T22:05:54.768Z,4.70
2018-11-26T22:08:22.803Z,4.70
2018-11-26T22:10:50.815Z,4.60
2018-11-26T22:13:20.365Z,4.60
2018-11-26T22:15:48.401Z,4.60
2018-11-26T22:18:16.437Z,4.60
2018-11-26T22:20:44.461Z,4.50
2018-11-26T22:23:12.505Z,4.50
2018-11-26T22:25:40.534Z,4.50
2018-11-26T22:28:09.843Z,4.40
2018-11-26T22:30:38.428Z,4.30
2018-11-26T22:33:06.513Z,4.20
2018-11-26T22:35:34.532Z,4.10
2018-11-26T22:38:02.567Z,4.10
2018-11-26T22:40:30.602Z,4.20
2018-11-26T22:42:58.647Z,4.10
2018-11-26T22:45:29.574Z,4.20
2018-11-26T22:48:01.050Z,4.20
2018-11-26T22:50:29.143Z,4.20
2018-11-26T22:52:57.181Z,4.30
2018-11-26T22:55:25.227Z,4.30
2018-11-26T22:57:53.240Z,4.30
2018-11-26T23:00:25.385Z,4.30
2018-11-26T23:02:58.698Z,4.30
2018-11-26T23:05:26.907Z,4.20
2018-11-26T23:07:54.974Z,4.30
2018-11-26T23:10:22.996Z,4.10
2018-11-26T23:12:51.022Z,4.00
2018-11-26T23:15:19.221Z,3.90
2018-11-26T23:17:48.122Z,3.90
2018-11-26T23:20:17.276Z,3.90
2018-11-26T23:22:45.302Z,3.90
2018-11-26T23:25:16.158Z,3.80
2018-11-26T23:27:44.205Z,3.80
2018-11-26T23:30:15.467Z,3.80
2018-11-26T23:32:43.947Z,3.80
2018-11-26T23:35:11.994Z,3.70
2018-11-26T23:37:40.020Z,3.70
2018-11-26T23:40:09.491Z,3.70
2018-11-26T23:42:37.539Z,3.80
2018-11-26T23:45:09.111Z,3.70
2018-11-26T23:47:37.162Z,3.50
2018-11-26T23:50:05.678Z,3.40
2018-11-26T23:52:33.782Z,3.50
2018-11-26T23:55:01.818Z,3.60
2018-11-26T23:57:29.859Z,3.50
2018-11-26T23:59:57.887Z,3.40
